sensor_id;sensor_type;location;lat;lon;timestamp;temperature;humidity
7360;DHT22;3720;48.274;7.796;2022-08-19T00:01:45;20.40;99.90
7360;DHT22;3720;48.274;7.796;2022-08-19T00:04:19;20.30;99.90
7360;DHT22;3720;48.274;7.796;2022-08-19T00:06:52;20.40;99.90
7360;DHT22;3720;48.274;7.796;2022-08-19T00:09:25;20.40;99.90
7360;DHT22;3720;48.274;7.796;2022-08-19T00:11:58;20.50;99.90
7360;DHT22;3720;48.274;7.796;2022-08-19T00:14:31;20.50;99.90
7360;DHT22;3720;48.274;7.796;2022-08-19T00:17:05;20.50;99.90
7360;DHT22;3720;48.274;7.796;2022-08-19T00:19:38;20.50;99.90
7360;DHT22;3720;48.274;7.796;2022-08-19T00:22:11;20.50;99.90
7360;DHT22;3720;48.274;7.796;2022-08-19T00:24:43;20.50;99.90
7360;DHT22;3720;48.274;7.796;2022-08-19T00:27:15;20.50;99.90
7360;DHT22;3720;48.274;7.796;2022-08-19T00:29:47;20.60;99.90
7360;DHT22;3720;48.274;7.796;2022-08-19T00:32:21;20.50;99.90
7360;DHT22;3720;48.274;7.796;2022-08-19T00:34:52;20.50;99.90
7360;DHT22;3720;48.274;7.796;2022-08-19T00:37:24;20.50;99.90
7360;DHT22;3720;48.274;7.796;2022-08-19T00:39:57;20.50;99.90
7360;DHT22;3720;48.274;7.796;2022-08-19T00:42:29;20.40;99.90
7360;DHT22;3720;48.274;7.796;2022-08-19T00:45:02;20.40;99.90
7360;DHT22;3720;48.274;7.796;2022-08-19T00:47:40;20.40;99.90
7360;DHT22;3720;48.274;7.796;2022-08-19T00:50:15;20.30;99.90
7360;DHT22;3720;48.274;7.796;2022-08-19T00:52:50;20.40;99.90
7360;DHT22;3720;48.274;7.796;2022-08-19T00:55:26;20.40;99.90
7360;DHT22;3720;48.274;7.796;2022-08-19T00:58:02;20.30;99.90
7360;DHT22;3720;48.274;7.796;2022-08-19T01:00:36;20.30;99.90
7360;DHT22;3720;48.274;7.796;2022-08-19T01:03:11;20.30;99.90
7360;DHT22;3720;48.274;7.796;2022-08-19T01:05:45;20.40;99.90
7360;DHT22;3720;48.274;7.796;2022-08-19T01:08:18;20.30;99.90
7360;DHT22;3720;48.274;7.796;2022-08-19T01:10:54;20.40;99.90
7360;DHT22;3720;48.274;7.796;2022-08-19T01:13:29;20.30;99.90
7360;DHT22;3720;48.274;7.796;2022-08-19T01:16:05;20.40;99.90
7360;DHT22;3720;48.274;7.796;2022-08-19T01:18:41;20.30;99.90
7360;DHT22;3720;48.274;7.796;2022-08-19T01:21:20;20.40;99.90
7360;DHT22;3720;48.274;7.796;2022-08-19T01:23:55;20.40;99.90
7360;DHT22;3720;48.274;7.796;2022-08-19T01:26:27;20.40;99.90
7360;DHT22;3720;48.274;7.796;2022-08-19T01:29:00;20.30;99.90
7360;DHT22;3720;48.274;7.796;2022-08-19T01:31:32;20.20;99.90
7360;DHT22;3720;48.274;7.796;2022-08-19T01:34:05;20.20;99.90
7360;DHT22;3720;48.274;7.796;2022-08-19T01:36:39;20.20;99.90
7360;DHT22;3720;48.274;7.796;2022-08-19T01:39:16;20.30;99.90
7360;DHT22;3720;48.274;7.796;2022-08-19T01:41:48;20.30;99.90
7360;DHT22;3720;48.274;7.796;2022-08-19T01:44:21;20.20;99.90
7360;DHT22;3720;48.274;7.796;2022-08-19T01:46:55;20.20;99.90
7360;DHT22;3720;48.274;7.796;2022-08-19T01:49:26;20.20;99.90
7360;DHT22;3720;48.274;7.796;2022-08-19T01:52:00;20.10;99.90
7360;DHT22;3720;48.274;7.796;2022-08-19T01:54:34;20.10;99.90
7360;DHT22;3720;48.274;7.796;2022-08-19T01:57:09;20.10;99.90
7360;DHT22;3720;48.274;7.796;2022-08-19T01:59:43;20.10;99.90
7360;DHT22;3720;48.274;7.796;2022-08-19T02:02:16;20.10;99.90
7360;DHT22;3720;48.274;7.796;2022-08-19T02:04:48;20.10;99.90
7360;DHT22;3720;48.274;7.796;2022-08-19T02:07:21;20.20;99.90
7360;DHT22;3720;48.274;7.796;2022-08-19T02:09:54;20.20;99.90
7360;DHT22;3720;48.274;7.796;2022-08-19T02:12:26;20.20;99.90
7360;DHT22;3720;48.274;7.796;2022-08-19T02:14:58;20.30;99.90
7360;DHT22;3720;48.274;7.796;2022-08-19T02:17:31;20.20;99.90
7360;DHT22;3720;48.274;7.796;2022-08-19T02:20:05;20.30;99.90
7360;DHT22;3720;48.274;7.796;2022-08-19T02:22:38;20.30;99.90
7360;DHT22;3720;48.274;7.796;2022-08-19T02:25:14;20.40;99.90
7360;DHT22;3720;48.274;7.796;2022-08-19T02:27:46;20.40;99.90
7360;DHT22;3720;48.274;7.796;2022-08-19T02:30:18;20.30;99.90
7360;DHT22;3720;48.274;7.796;2022-08-19T02:32:50;20.40;99.90
7360;DHT22;3720;48.274;7.796;2022-08-19T02:35:23;20.40;99.90
7360;DHT22;3720;48.274;7.796;2022-08-19T02:37:55;20.30;99.90
7360;DHT22;3720;48.274;7.796;2022-08-19T02:40:50;20.30;99.90
7360;DHT22;3720;48.274;7.796;2022-08-19T02:43:23;20.20;99.90
7360;DHT22;3720;48.274;7.796;2022-08-19T02:45:56;20.20;99.90
7360;DHT22;3720;48.274;7.796;2022-08-19T02:48:28;20.10;99.90
7360;DHT22;3720;48.274;7.796;2022-08-19T02:51:03;20.10;99.90
7360;DHT22;3720;48.274;7.796;2022-08-19T02:53:35;20.10;99.90
7360;DHT22;3720;48.274;7.796;2022-08-19T02:56:09;20.10;99.90
7360;DHT22;3720;48.274;7.796;2022-08-19T02:58:41;20.20;99.90
7360;DHT22;3720;48.274;7.796;2022-08-19T03:01:20;20.10;99.90
7360;DHT22;3720;48.274;7.796;2022-08-19T03:03:53;20.00;99.90
7360;DHT22;3720;48.274;7.796;2022-08-19T03:06:26;19.90;99.90
7360;DHT22;3720;48.274;7.796;2022-08-19T03:08:59;19.80;99.90
7360;DHT22;3720;48.274;7.796;2022-08-19T03:11:33;19.80;99.90
7360;DHT22;3720;48.274;7.796;2022-08-19T03:14:07;19.80;99.90
7360;DHT22;3720;48.274;7.796;2022-08-19T03:16:45;19.80;99.90
7360;DHT22;3720;48.274;7.796;2022-08-19T03:19:18;19.80;99.90
7360;DHT22;3720;48.274;7.796;2022-08-19T03:21:51;19.90;99.90
7360;DHT22;3720;48.274;7.796;2022-08-19T03:24:24;19.90;99.90
7360;DHT22;3720;48.274;7.796;2022-08-19T03:26:58;19.90;99.90
7360;DHT22;3720;48.274;7.796;2022-08-19T03:29:31;19.80;99.90
7360;DHT22;3720;48.274;7.796;2022-08-19T03:32:04;19.70;99.90
7360;DHT22;3720;48.274;7.796;2022-08-19T03:34:37;19.70;99.90
7360;DHT22;3720;48.274;7.796;2022-08-19T03:37:11;19.80;99.90
7360;DHT22;3720;48.274;7.796;2022-08-19T03:39:43;19.80;99.90
7360;DHT22;3720;48.274;7.796;2022-08-19T03:42:17;19.90;99.90
7360;DHT22;3720;48.274;7.796;2022-08-19T03:44:51;19.80;99.90
7360;DHT22;3720;48.274;7.796;2022-08-19T03:47:23;19.70;99.90
7360;DHT22;3720;48.274;7.796;2022-08-19T03:49:56;19.70;99.90
7360;DHT22;3720;48.274;7.796;2022-08-19T03:52:28;19.70;99.90
7360;DHT22;3720;48.274;7.796;2022-08-19T03:54:59;19.80;99.90
7360;DHT22;3720;48.274;7.796;2022-08-19T03:57:33;19.90;99.90
7360;DHT22;3720;48.274;7.796;2022-08-19T04:00:06;19.90;99.90
7360;DHT22;3720;48.274;7.796;2022-08-19T04:02:38;19.80;99.90
7360;DHT22;3720;48.274;7.796;2022-08-19T04:05:10;19.80;99.90
7360;DHT22;3720;48.274;7.796;2022-08-19T04:07:44;19.80;99.90
7360;DHT22;3720;48.274;7.796;2022-08-19T04:10:16;19.70;99.90
7360;DHT22;3720;48.274;7.796;2022-08-19T04:12:49;19.70;99.90
7360;DHT22;3720;48.274;7.796;2022-08-19T04:15:21;19.80;99.90
7360;DHT22;3720;48.274;7.796;2022-08-19T04:17:54;19.70;99.90
7360;DHT22;3720;48.274;7.796;2022-08-19T04:20:26;19.80;99.90
7360;DHT22;3720;48.274;7.796;2022-08-19T04:22:58;19.70;99.90
7360;DHT22;3720;48.274;7.796;2022-08-19T04:25:35;19.70;99.90
7360;DHT22;3720;48.274;7.796;2022-08-19T04:28:11;19.90;99.90
7360;DHT22;3720;48.274;7.796;2022-08-19T04:30:45;19.90;99.90
7360;DHT22;3720;48.274;7.796;2022-08-19T04:33:21;19.90;99.90
7360;DHT22;3720;48.274;7.796;2022-08-19T04:35:54;19.90;99.90
7360;DHT22;3720;48.274;7.796;2022-08-19T04:38:28;19.90;99.90
7360;DHT22;3720;48.274;7.796;2022-08-19T04:41:03;19.90;99.90
7360;DHT22;3720;48.274;7.796;2022-08-19T04:43:53;19.90;99.90
7360;DHT22;3720;48.274;7.796;2022-08-19T04:46:25;19.90;99.90
7360;DHT22;3720;48.274;7.796;2022-08-19T04:49:00;19.90;99.90
7360;DHT22;3720;48.274;7.796;2022-08-19T04:51:34;19.80;99.90
7360;DHT22;3720;48.274;7.796;2022-08-19T04:54:07;19.80;99.90
7360;DHT22;3720;48.274;7.796;2022-08-19T04:56:40;19.80;99.90
7360;DHT22;3720;48.274;7.796;2022-08-19T04:59:14;19.80;99.90
7360;DHT22;3720;48.274;7.796;2022-08-19T05:01:46;19.90;99.90
7360;DHT22;3720;48.274;7.796;2022-08-19T05:04:20;20.00;99.90
7360;DHT22;3720;48.274;7.796;2022-08-19T05:06:52;20.10;99.90
7360;DHT22;3720;48.274;7.796;2022-08-19T05:09:24;20.20;99.90
7360;DHT22;3720;48.274;7.796;2022-08-19T05:11:56;20.20;99.90
7360;DHT22;3720;48.274;7.796;2022-08-19T05:14:30;20.20;99.90
7360;DHT22;3720;48.274;7.796;2022-08-19T05:17:02;20.20;99.90
7360;DHT22;3720;48.274;7.796;2022-08-19T05:19:34;20.20;99.90
7360;DHT22;3720;48.274;7.796;2022-08-19T05:22:23;20.10;99.90
7360;DHT22;3720;48.274;7.796;2022-08-19T05:25:08;20.10;99.90
7360;DHT22;3720;48.274;7.796;2022-08-19T05:27:42;20.10;99.90
7360;DHT22;3720;48.274;7.796;2022-08-19T05:30:16;20.10;99.90
7360;DHT22;3720;48.274;7.796;2022-08-19T05:32:48;20.10;99.90
7360;DHT22;3720;48.274;7.796;2022-08-19T05:35:20;20.20;99.90
7360;DHT22;3720;48.274;7.796;2022-08-19T05:37:54;20.20;99.90
7360;DHT22;3720;48.274;7.796;2022-08-19T05:40:26;20.40;99.90
7360;DHT22;3720;48.274;7.796;2022-08-19T05:42:58;20.50;99.90
7360;DHT22;3720;48.274;7.796;2022-08-19T05:45:32;20.50;99.90
7360;DHT22;3720;48.274;7.796;2022-08-19T05:48:04;20.50;99.90
7360;DHT22;3720;48.274;7.796;2022-08-19T05:50:37;20.40;99.90
7360;DHT22;3720;48.274;7.796;2022-08-19T05:53:09;20.40;99.90
7360;DHT22;3720;48.274;7.796;2022-08-19T05:55:42;20.30;99.90
7360;DHT22;3720;48.274;7.796;2022-08-19T05:58:14;20.30;99.90
7360;DHT22;3720;48.274;7.796;2022-08-19T06:00:49;20.30;99.90
7360;DHT22;3720;48.274;7.796;2022-08-19T06:03:21;20.30;99.90
7360;DHT22;3720;48.274;7.796;2022-08-19T06:05:54;20.30;99.90
7360;DHT22;3720;48.274;7.796;2022-08-19T06:08:26;20.30;99.90
7360;DHT22;3720;48.274;7.796;2022-08-19T06:11:12;20.40;99.90
7360;DHT22;3720;48.274;7.796;2022-08-19T06:13:46;20.50;99.90
7360;DHT22;3720;48.274;7.796;2022-08-19T06:16:22;20.50;99.90
7360;DHT22;3720;48.274;7.796;2022-08-19T06:18:55;20.50;99.90
7360;DHT22;3720;48.274;7.796;2022-08-19T06:21:28;20.50;99.90
7360;DHT22;3720;48.274;7.796;2022-08-19T06:24:00;20.50;99.90
7360;DHT22;3720;48.274;7.796;2022-08-19T06:26:34;20.50;99.90
7360;DHT22;3720;48.274;7.796;2022-08-19T06:29:08;20.60;99.90
7360;DHT22;3720;48.274;7.796;2022-08-19T06:31:43;20.60;99.90
7360;DHT22;3720;48.274;7.796;2022-08-19T06:34:16;20.60;99.90
7360;DHT22;3720;48.274;7.796;2022-08-19T06:36:50;20.50;99.90
7360;DHT22;3720;48.274;7.796;2022-08-19T06:39:25;20.50;99.90
7360;DHT22;3720;48.274;7.796;2022-08-19T06:42:00;20.50;99.90
7360;DHT22;3720;48.274;7.796;2022-08-19T06:44:33;20.60;99.90
7360;DHT22;3720;48.274;7.796;2022-08-19T06:47:09;20.60;99.90
7360;DHT22;3720;48.274;7.796;2022-08-19T06:49:42;20.70;99.90
7360;DHT22;3720;48.274;7.796;2022-08-19T06:52:14;20.70;99.90
7360;DHT22;3720;48.274;7.796;2022-08-19T06:54:46;20.70;99.90
7360;DHT22;3720;48.274;7.796;2022-08-19T06:57:18;20.70;99.90
7360;DHT22;3720;48.274;7.796;2022-08-19T06:59:50;20.70;99.90
7360;DHT22;3720;48.274;7.796;2022-08-19T07:02:23;20.70;99.90
7360;DHT22;3720;48.274;7.796;2022-08-19T07:04:56;20.70;99.90
7360;DHT22;3720;48.274;7.796;2022-08-19T07:07:29;20.70;99.90
7360;DHT22;3720;48.274;7.796;2022-08-19T07:10:02;20.70;99.90
7360;DHT22;3720;48.274;7.796;2022-08-19T07:12:35;20.80;99.90
7360;DHT22;3720;48.274;7.796;2022-08-19T07:15:08;20.80;99.90
7360;DHT22;3720;48.274;7.796;2022-08-19T07:17:42;20.90;99.90
7360;DHT22;3720;48.274;7.796;2022-08-19T07:20:14;20.90;99.90
7360;DHT22;3720;48.274;7.796;2022-08-19T07:22:46;21.00;99.90
7360;DHT22;3720;48.274;7.796;2022-08-19T07:25:19;20.90;99.90
7360;DHT22;3720;48.274;7.796;2022-08-19T07:27:52;20.90;99.90
7360;DHT22;3720;48.274;7.796;2022-08-19T07:30:24;21.00;99.90
7360;DHT22;3720;48.274;7.796;2022-08-19T07:32:57;21.10;99.90
7360;DHT22;3720;48.274;7.796;2022-08-19T07:35:30;21.00;99.90
7360;DHT22;3720;48.274;7.796;2022-08-19T07:38:02;21.10;99.90
7360;DHT22;3720;48.274;7.796;2022-08-19T07:40:34;21.10;99.90
7360;DHT22;3720;48.274;7.796;2022-08-19T07:43:06;21.20;99.90
7360;DHT22;3720;48.274;7.796;2022-08-19T07:45:38;21.20;99.90
7360;DHT22;3720;48.274;7.796;2022-08-19T07:48:12;21.30;99.90
7360;DHT22;3720;48.274;7.796;2022-08-19T07:50:44;21.30;99.90
7360;DHT22;3720;48.274;7.796;2022-08-19T07:53:18;21.20;99.90
7360;DHT22;3720;48.274;7.796;2022-08-19T07:55:51;21.30;99.90
7360;DHT22;3720;48.274;7.796;2022-08-19T07:58:23;21.30;99.90
7360;DHT22;3720;48.274;7.796;2022-08-19T08:00:56;21.40;99.90
7360;DHT22;3720;48.274;7.796;2022-08-19T08:03:29;21.40;99.90
7360;DHT22;3720;48.274;7.796;2022-08-19T08:06:19;21.40;99.90
7360;DHT22;3720;48.274;7.796;2022-08-19T08:09:09;21.30;99.90
7360;DHT22;3720;48.274;7.796;2022-08-19T08:11:50;21.30;99.90
7360;DHT22;3720;48.274;7.796;2022-08-19T08:14:25;21.40;99.90
7360;DHT22;3720;48.274;7.796;2022-08-19T08:16:57;21.40;99.90
7360;DHT22;3720;48.274;7.796;2022-08-19T08:19:32;21.40;99.90
7360;DHT22;3720;48.274;7.796;2022-08-19T08:22:04;21.50;99.90
7360;DHT22;3720;48.274;7.796;2022-08-19T08:24:37;21.60;99.90
7360;DHT22;3720;48.274;7.796;2022-08-19T08:27:09;21.60;99.90
7360;DHT22;3720;48.274;7.796;2022-08-19T08:29:41;21.70;99.90
7360;DHT22;3720;48.274;7.796;2022-08-19T08:32:14;21.70;99.90
7360;DHT22;3720;48.274;7.796;2022-08-19T08:34:48;21.70;99.90
7360;DHT22;3720;48.274;7.796;2022-08-19T08:37:20;21.70;99.90
7360;DHT22;3720;48.274;7.796;2022-08-19T08:39:52;21.60;99.90
7360;DHT22;3720;48.274;7.796;2022-08-19T08:42:28;21.70;99.90
7360;DHT22;3720;48.274;7.796;2022-08-19T08:45:06;21.70;99.90
7360;DHT22;3720;48.274;7.796;2022-08-19T08:47:48;21.60;99.90
7360;DHT22;3720;48.274;7.796;2022-08-19T08:50:28;21.60;99.90
7360;DHT22;3720;48.274;7.796;2022-08-19T08:53:03;21.70;99.90
7360;DHT22;3720;48.274;7.796;2022-08-19T08:55:37;21.70;99.90
7360;DHT22;3720;48.274;7.796;2022-08-19T08:58:15;21.70;99.90
7360;DHT22;3720;48.274;7.796;2022-08-19T09:00:48;21.80;99.90
7360;DHT22;3720;48.274;7.796;2022-08-19T09:03:22;21.80;99.90
7360;DHT22;3720;48.274;7.796;2022-08-19T09:06:00;21.90;99.90
7360;DHT22;3720;48.274;7.796;2022-08-19T09:08:45;21.90;99.90
7360;DHT22;3720;48.274;7.796;2022-08-19T09:11:24;21.90;99.90
7360;DHT22;3720;48.274;7.796;2022-08-19T09:14:07;21.90;99.90
7360;DHT22;3720;48.274;7.796;2022-08-19T09:16:41;22.00;99.90
7360;DHT22;3720;48.274;7.796;2022-08-19T09:19:13;22.00;99.90
7360;DHT22;3720;48.274;7.796;2022-08-19T09:21:47;22.00;99.90
7360;DHT22;3720;48.274;7.796;2022-08-19T09:24:20;22.10;99.90
7360;DHT22;3720;48.274;7.796;2022-08-19T09:26:52;22.10;99.90
7360;DHT22;3720;48.274;7.796;2022-08-19T09:29:24;22.10;99.90
7360;DHT22;3720;48.274;7.796;2022-08-19T09:31:56;22.20;99.90
7360;DHT22;3720;48.274;7.796;2022-08-19T09:34:28;22.10;99.90
7360;DHT22;3720;48.274;7.796;2022-08-19T09:37:01;22.10;99.90
7360;DHT22;3720;48.274;7.796;2022-08-19T09:39:34;22.10;99.90
7360;DHT22;3720;48.274;7.796;2022-08-19T09:42:06;22.10;99.90
7360;DHT22;3720;48.274;7.796;2022-08-19T09:44:42;22.20;99.90
7360;DHT22;3720;48.274;7.796;2022-08-19T09:47:14;22.30;99.90
7360;DHT22;3720;48.274;7.796;2022-08-19T09:49:47;22.40;99.90
7360;DHT22;3720;48.274;7.796;2022-08-19T09:52:20;22.50;99.90
7360;DHT22;3720;48.274;7.796;2022-08-19T09:54:52;22.60;99.90
7360;DHT22;3720;48.274;7.796;2022-08-19T09:57:24;22.60;99.90
7360;DHT22;3720;48.274;7.796;2022-08-19T09:59:56;22.60;99.90
7360;DHT22;3720;48.274;7.796;2022-08-19T10:02:29;22.70;99.90
7360;DHT22;3720;48.274;7.796;2022-08-19T10:05:01;22.80;99.90
7360;DHT22;3720;48.274;7.796;2022-08-19T10:07:52;22.80;99.90
7360;DHT22;3720;48.274;7.796;2022-08-19T10:10:25;22.90;99.90
7360;DHT22;3720;48.274;7.796;2022-08-19T10:12:57;22.90;99.90
7360;DHT22;3720;48.274;7.796;2022-08-19T10:15:29;23.00;99.90
7360;DHT22;3720;48.274;7.796;2022-08-19T10:18:01;23.10;99.90
7360;DHT22;3720;48.274;7.796;2022-08-19T10:20:33;23.10;99.90
7360;DHT22;3720;48.274;7.796;2022-08-19T10:23:07;23.10;99.90
7360;DHT22;3720;48.274;7.796;2022-08-19T10:25:39;23.10;99.90
7360;DHT22;3720;48.274;7.796;2022-08-19T10:28:11;23.20;99.90
7360;DHT22;3720;48.274;7.796;2022-08-19T10:30:44;23.30;99.90
7360;DHT22;3720;48.274;7.796;2022-08-19T10:33:15;23.30;99.90
7360;DHT22;3720;48.274;7.796;2022-08-19T10:35:48;23.30;99.90
7360;DHT22;3720;48.274;7.796;2022-08-19T10:38:21;23.30;99.90
7360;DHT22;3720;48.274;7.796;2022-08-19T10:40:53;23.30;99.90
7360;DHT22;3720;48.274;7.796;2022-08-19T10:43:25;23.40;99.90
7360;DHT22;3720;48.274;7.796;2022-08-19T10:45:57;23.40;99.90
7360;DHT22;3720;48.274;7.796;2022-08-19T10:48:29;23.40;99.90
7360;DHT22;3720;48.274;7.796;2022-08-19T10:51:01;23.30;99.90
7360;DHT22;3720;48.274;7.796;2022-08-19T10:53:52;23.30;99.90
7360;DHT22;3720;48.274;7.796;2022-08-19T10:56:24;23.40;99.90
7360;DHT22;3720;48.274;7.796;2022-08-19T10:59:14;23.40;99.90
7360;DHT22;3720;48.274;7.796;2022-08-19T11:01:47;23.40;99.90
7360;DHT22;3720;48.274;7.796;2022-08-19T11:04:20;23.30;99.90
7360;DHT22;3720;48.274;7.796;2022-08-19T11:06:52;23.40;99.90
7360;DHT22;3720;48.274;7.796;2022-08-19T11:09:26;23.30;99.90
7360;DHT22;3720;48.274;7.796;2022-08-19T11:11:58;23.30;99.90
7360;DHT22;3720;48.274;7.796;2022-08-19T11:14:31;23.30;99.90
7360;DHT22;3720;48.274;7.796;2022-08-19T11:17:05;23.40;99.90
7360;DHT22;3720;48.274;7.796;2022-08-19T11:19:37;23.50;99.90
7360;DHT22;3720;48.274;7.796;2022-08-19T11:22:09;23.50;99.90
7360;DHT22;3720;48.274;7.796;2022-08-19T11:24:43;23.40;99.90
7360;DHT22;3720;48.274;7.796;2022-08-19T11:27:15;23.50;99.90
7360;DHT22;3720;48.274;7.796;2022-08-19T11:29:47;23.50;99.90
7360;DHT22;3720;48.274;7.796;2022-08-19T11:32:19;23.50;99.90
7360;DHT22;3720;48.274;7.796;2022-08-19T11:34:51;23.50;99.90
7360;DHT22;3720;48.274;7.796;2022-08-19T11:37:23;23.50;99.90
7360;DHT22;3720;48.274;7.796;2022-08-19T11:39:57;23.50;99.90
7360;DHT22;3720;48.274;7.796;2022-08-19T11:42:28;23.50;99.90
7360;DHT22;3720;48.274;7.796;2022-08-19T11:45:18;23.50;99.90
7360;DHT22;3720;48.274;7.796;2022-08-19T11:47:50;23.50;99.90
7360;DHT22;3720;48.274;7.796;2022-08-19T11:50:22;23.60;99.90
7360;DHT22;3720;48.274;7.796;2022-08-19T11:52:55;23.70;99.90
7360;DHT22;3720;48.274;7.796;2022-08-19T11:55:29;23.70;99.90
7360;DHT22;3720;48.274;7.796;2022-08-19T11:58:00;23.80;99.90
7360;DHT22;3720;48.274;7.796;2022-08-19T12:00:33;23.90;99.90
7360;DHT22;3720;48.274;7.796;2022-08-19T12:03:07;24.00;99.90
7360;DHT22;3720;48.274;7.796;2022-08-19T12:05:40;24.00;99.90
7360;DHT22;3720;48.274;7.796;2022-08-19T12:08:13;24.20;99.90
7360;DHT22;3720;48.274;7.796;2022-08-19T12:10:47;24.40;99.90
7360;DHT22;3720;48.274;7.796;2022-08-19T12:13:19;24.70;99.90
7360;DHT22;3720;48.274;7.796;2022-08-19T12:15:50;24.90;99.90
7360;DHT22;3720;48.274;7.796;2022-08-19T12:18:23;25.10;99.90
7360;DHT22;3720;48.274;7.796;2022-08-19T12:20:56;25.20;99.90
7360;DHT22;3720;48.274;7.796;2022-08-19T12:23:31;25.70;99.90
7360;DHT22;3720;48.274;7.796;2022-08-19T12:26:04;26.10;99.90
7360;DHT22;3720;48.274;7.796;2022-08-19T12:28:37;26.50;99.90
7360;DHT22;3720;48.274;7.796;2022-08-19T12:31:10;26.70;99.90
7360;DHT22;3720;48.274;7.796;2022-08-19T12:33:43;26.70;99.90
7360;DHT22;3720;48.274;7.796;2022-08-19T12:36:16;26.70;99.90
7360;DHT22;3720;48.274;7.796;2022-08-19T12:38:49;26.70;99.90
7360;DHT22;3720;48.274;7.796;2022-08-19T12:41:22;26.70;99.90
7360;DHT22;3720;48.274;7.796;2022-08-19T12:43:54;26.90;99.90
7360;DHT22;3720;48.274;7.796;2022-08-19T12:46:27;27.00;99.90
7360;DHT22;3720;48.274;7.796;2022-08-19T12:48:58;27.10;99.90
7360;DHT22;3720;48.274;7.796;2022-08-19T12:51:30;27.30;99.90
7360;DHT22;3720;48.274;7.796;2022-08-19T12:54:03;27.70;99.90
7360;DHT22;3720;48.274;7.796;2022-08-19T12:56:37;28.00;99.90
7360;DHT22;3720;48.274;7.796;2022-08-19T12:59:09;28.10;99.90
7360;DHT22;3720;48.274;7.796;2022-08-19T13:01:41;28.30;99.90
7360;DHT22;3720;48.274;7.796;2022-08-19T13:04:15;28.40;99.90
7360;DHT22;3720;48.274;7.796;2022-08-19T13:06:47;28.60;99.90
7360;DHT22;3720;48.274;7.796;2022-08-19T13:09:18;28.70;99.90
7360;DHT22;3720;48.274;7.796;2022-08-19T13:11:52;28.90;99.90
7360;DHT22;3720;48.274;7.796;2022-08-19T13:14:24;28.90;99.90
7360;DHT22;3720;48.274;7.796;2022-08-19T13:16:56;28.70;99.90
7360;DHT22;3720;48.274;7.796;2022-08-19T13:19:28;28.40;99.90
7360;DHT22;3720;48.274;7.796;2022-08-19T13:22:00;28.00;99.90
7360;DHT22;3720;48.274;7.796;2022-08-19T13:24:33;27.70;99.90
7360;DHT22;3720;48.274;7.796;2022-08-19T13:27:08;27.60;99.90
7360;DHT22;3720;48.274;7.796;2022-08-19T13:29:40;27.50;99.90
7360;DHT22;3720;48.274;7.796;2022-08-19T13:32:30;27.70;99.90
7360;DHT22;3720;48.274;7.796;2022-08-19T13:35:19;27.80;99.90
7360;DHT22;3720;48.274;7.796;2022-08-19T13:37:52;28.10;99.90
7360;DHT22;3720;48.274;7.796;2022-08-19T13:40:24;28.40;99.90
7360;DHT22;3720;48.274;7.796;2022-08-19T13:42:59;28.70;99.90
7360;DHT22;3720;48.274;7.796;2022-08-19T13:45:33;28.80;99.90
7360;DHT22;3720;48.274;7.796;2022-08-19T13:48:06;28.70;99.90
7360;DHT22;3720;48.274;7.796;2022-08-19T13:50:41;28.70;99.90
7360;DHT22;3720;48.274;7.796;2022-08-19T13:53:14;28.80;99.90
7360;DHT22;3720;48.274;7.796;2022-08-19T13:55:46;29.00;99.90
7360;DHT22;3720;48.274;7.796;2022-08-19T13:58:22;29.00;99.90
7360;DHT22;3720;48.274;7.796;2022-08-19T14:00:54;29.00;99.90
7360;DHT22;3720;48.274;7.796;2022-08-19T14:03:27;29.00;99.90
7360;DHT22;3720;48.274;7.796;2022-08-19T14:05:59;29.10;99.90
7360;DHT22;3720;48.274;7.796;2022-08-19T14:08:32;29.00;99.90
7360;DHT22;3720;48.274;7.796;2022-08-19T14:11:03;28.90;99.90
7360;DHT22;3720;48.274;7.796;2022-08-19T14:13:37;28.70;99.90
7360;DHT22;3720;48.274;7.796;2022-08-19T14:16:10;28.60;99.90
7360;DHT22;3720;48.274;7.796;2022-08-19T14:18:43;28.30;99.90
7360;DHT22;3720;48.274;7.796;2022-08-19T14:21:16;28.00;99.90
7360;DHT22;3720;48.274;7.796;2022-08-19T14:23:49;27.70;99.90
7360;DHT22;3720;48.274;7.796;2022-08-19T14:26:23;27.50;99.90
7360;DHT22;3720;48.274;7.796;2022-08-19T14:28:57;27.60;99.90
7360;DHT22;3720;48.274;7.796;2022-08-19T14:31:30;27.70;99.90
7360;DHT22;3720;48.274;7.796;2022-08-19T14:34:02;27.90;99.90
7360;DHT22;3720;48.274;7.796;2022-08-19T14:36:34;27.80;99.90
7360;DHT22;3720;48.274;7.796;2022-08-19T14:39:06;27.60;99.90
7360;DHT22;3720;48.274;7.796;2022-08-19T14:41:40;27.30;99.90
7360;DHT22;3720;48.274;7.796;2022-08-19T14:44:14;27.10;99.90
7360;DHT22;3720;48.274;7.796;2022-08-19T14:46:46;27.00;99.90
7360;DHT22;3720;48.274;7.796;2022-08-19T14:49:18;26.90;99.90
7360;DHT22;3720;48.274;7.796;2022-08-19T14:51:49;26.80;99.90
7360;DHT22;3720;48.274;7.796;2022-08-19T14:54:21;26.80;99.90
7360;DHT22;3720;48.274;7.796;2022-08-19T14:56:53;26.70;99.90
7360;DHT22;3720;48.274;7.796;2022-08-19T14:59:27;26.70;99.90
7360;DHT22;3720;48.274;7.796;2022-08-19T15:01:59;26.70;99.90
7360;DHT22;3720;48.274;7.796;2022-08-19T15:04:31;26.70;99.90
7360;DHT22;3720;48.274;7.796;2022-08-19T15:07:03;26.70;99.90
7360;DHT22;3720;48.274;7.796;2022-08-19T15:09:35;26.80;99.90
7360;DHT22;3720;48.274;7.796;2022-08-19T15:12:08;26.80;99.90
7360;DHT22;3720;48.274;7.796;2022-08-19T15:14:42;26.70;99.90
7360;DHT22;3720;48.274;7.796;2022-08-19T15:17:14;26.70;99.90
7360;DHT22;3720;48.274;7.796;2022-08-19T15:19:47;26.70;99.90
7360;DHT22;3720;48.274;7.796;2022-08-19T15:22:19;26.70;99.90
7360;DHT22;3720;48.274;7.796;2022-08-19T15:24:51;26.70;99.90
7360;DHT22;3720;48.274;7.796;2022-08-19T15:27:25;26.70;99.90
7360;DHT22;3720;48.274;7.796;2022-08-19T15:29:59;26.80;99.90
7360;DHT22;3720;48.274;7.796;2022-08-19T15:32:31;26.80;99.90
7360;DHT22;3720;48.274;7.796;2022-08-19T15:35:03;26.80;99.90
7360;DHT22;3720;48.274;7.796;2022-08-19T15:37:35;26.70;99.90
7360;DHT22;3720;48.274;7.796;2022-08-19T15:40:08;26.70;99.90
7360;DHT22;3720;48.274;7.796;2022-08-19T15:42:40;26.50;99.90
7360;DHT22;3720;48.274;7.796;2022-08-19T15:45:17;26.40;99.90
7360;DHT22;3720;48.274;7.796;2022-08-19T15:47:50;26.40;99.90
7360;DHT22;3720;48.274;7.796;2022-08-19T15:50:21;26.40;99.90
7360;DHT22;3720;48.274;7.796;2022-08-19T15:52:57;26.30;99.90
7360;DHT22;3720;48.274;7.796;2022-08-19T15:55:32;26.20;99.90
7360;DHT22;3720;48.274;7.796;2022-08-19T15:58:06;26.20;99.90
7360;DHT22;3720;48.274;7.796;2022-08-19T16:00:58;26.30;99.90
7360;DHT22;3720;48.274;7.796;2022-08-19T16:03:48;26.30;99.90
7360;DHT22;3720;48.274;7.796;2022-08-19T16:06:38;26.20;99.90
7360;DHT22;3720;48.274;7.796;2022-08-19T16:09:10;26.00;99.90
7360;DHT22;3720;48.274;7.796;2022-08-19T16:11:43;25.90;99.90
7360;DHT22;3720;48.274;7.796;2022-08-19T16:14:17;25.80;99.90
7360;DHT22;3720;48.274;7.796;2022-08-19T16:16:50;25.70;99.90
7360;DHT22;3720;48.274;7.796;2022-08-19T16:19:23;25.70;99.90
7360;DHT22;3720;48.274;7.796;2022-08-19T16:21:56;25.60;99.90
7360;DHT22;3720;48.274;7.796;2022-08-19T16:24:28;25.60;99.90
7360;DHT22;3720;48.274;7.796;2022-08-19T16:27:00;25.60;99.90
7360;DHT22;3720;48.274;7.796;2022-08-19T16:29:32;25.50;99.90
7360;DHT22;3720;48.274;7.796;2022-08-19T16:32:09;25.40;99.90
7360;DHT22;3720;48.274;7.796;2022-08-19T16:34:42;25.30;99.90
7360;DHT22;3720;48.274;7.796;2022-08-19T16:37:14;25.40;99.90
7360;DHT22;3720;48.274;7.796;2022-08-19T16:39:47;25.30;99.90
7360;DHT22;3720;48.274;7.796;2022-08-19T16:42:19;25.30;99.90
7360;DHT22;3720;48.274;7.796;2022-08-19T16:44:51;25.30;99.90